McVeigh, Kentucky
Current Conditions -  °F | °C
As of 3:15 PM on Monday 24 Nov 2014 (Local Time) from KPBX Reporting Station
Scattered Clouds Scattered Clouds  
Wind Chill: 67°   Ceiling: Unl
Heat Index: 67°   Visibility: 10mi
Dew Point: 41°   Wind: 10mph
Humidity: 38%   Direction: 240°WSW
Pressure: 29.66"   Gusts: 25mph
Location:  37.54°N, 82.26°W
Report Text: KPBX 242015Z AUTO 24009G22KT 210V280 10SM SCT075 SCT090 20/05 A2966 RMK AO2 LTG DSNT SE T01970050
Loading
Personal Weather Stations






























Interactive Weather Map New forecast layout! Learn more

10-Day Weather Forecast

Advertisements
Track Severe Weather on mobile